createdAt,value
2022-09-18T00:01:11.228Z,8.93
2022-09-18T00:03:38.957Z,12.63
2022-09-18T00:06:08.983Z,7.00
2022-09-18T00:08:38.447Z,9.87
2022-09-18T00:11:06.969Z,9.17
2022-09-18T00:13:34.592Z,11.93
2022-09-18T00:16:02.339Z,9.00
2022-09-18T00:18:31.224Z,7.83
2022-09-18T00:21:04.238Z,11.03
2022-09-18T00:23:31.927Z,7.40
2022-09-18T00:25:59.418Z,8.87
2022-09-18T00:28:26.958Z,10.97
2022-09-18T00:30:54.677Z,9.53
2022-09-18T00:33:22.307Z,10.70
2022-09-18T00:35:51.133Z,7.73
2022-09-18T00:38:18.658Z,10.50
2022-09-18T00:40:46.158Z,8.20
2022-09-18T00:43:21.083Z,7.97
2022-09-18T00:45:53.666Z,9.47
2022-09-18T00:48:21.613Z,7.47
2022-09-18T00:50:50.742Z,9.13
2022-09-18T00:53:21.206Z,6.50
2022-09-18T00:55:48.720Z,6.30
2022-09-18T00:58:16.250Z,10.27
2022-09-18T01:00:43.868Z,10.23
2022-09-18T01:03:11.862Z,8.27
2022-09-18T01:05:48.985Z,7.17
2022-09-18T01:08:25.442Z,10.67
2022-09-18T01:11:03.705Z,6.33
2022-09-18T01:13:36.012Z,8.13
2022-09-18T01:16:09.209Z,6.73
2022-09-18T01:18:41.610Z,10.03
2022-09-18T01:21:11.563Z,7.00
2022-09-18T01:24:06.422Z,9.17
2022-09-18T01:26:58.623Z,7.70
2022-09-18T01:29:45.209Z,8.77
2022-09-18T01:32:19.808Z,5.77
2022-09-18T01:34:49.683Z,11.93
2022-09-18T01:37:22.052Z,14.50
2022-09-18T01:39:53.765Z,6.47
2022-09-18T01:42:23.868Z,7.80
2022-09-18T01:44:55.016Z,5.83
2022-09-18T01:47:23.931Z,6.87
2022-09-18T01:49:54.006Z,9.13
2022-09-18T01:52:24.333Z,8.07
2022-09-18T01:54:53.731Z,11.03
2022-09-18T01:57:25.931Z,7.23
2022-09-18T01:59:59.567Z,9.47
2022-09-18T02:02:32.305Z,6.77
2022-09-18T02:05:01.774Z,8.57
2022-09-18T02:08:07.338Z,9.77
2022-09-18T02:10:37.689Z,7.60
2022-09-18T02:13:09.700Z,8.17
2022-09-18T02:15:39.780Z,6.60
2022-09-18T02:18:17.953Z,6.27
2022-09-18T02:20:45.931Z,8.83
2022-09-18T02:23:13.462Z,8.50
2022-09-18T02:25:44.541Z,8.23
2022-09-18T02:28:15.044Z,5.43
2022-09-18T02:30:44.591Z,5.97
2022-09-18T02:33:26.274Z,9.83
2022-09-18T02:36:02.521Z,11.03
2022-09-18T02:38:33.121Z,6.93
2022-09-18T02:41:06.931Z,7.00
2022-09-18T02:43:43.046Z,8.83
2022-09-18T02:46:18.129Z,11.03
2022-09-18T02:48:57.519Z,9.17
2022-09-18T02:51:30.498Z,8.67
2022-09-18T02:54:00.206Z,10.40
2022-09-18T02:56:34.189Z,14.10
2022-09-18T02:59:06.997Z,9.57
2022-09-18T03:01:39.711Z,7.80
2022-09-18T03:04:11.887Z,10.77
2022-09-18T03:06:55.299Z,12.83
2022-09-18T03:09:23.296Z,10.87
2022-09-18T03:11:53.776Z,9.67
2022-09-18T03:14:22.043Z,8.03
2022-09-18T03:16:51.174Z,12.40
2022-09-18T03:19:18.933Z,9.80
2022-09-18T03:21:46.789Z,10.77
2022-09-18T03:24:14.424Z,7.53
2022-09-18T03:26:44.834Z,8.27
2022-09-18T03:29:13.540Z,9.07
2022-09-18T03:31:45.416Z,12.87
2022-09-18T03:34:14.437Z,10.60
2022-09-18T03:36:41.930Z,10.03
2022-09-18T03:39:13.743Z,8.93
2022-09-18T03:41:44.509Z,7.73
2022-09-18T03:44:12.628Z,9.60
2022-09-18T03:46:42.581Z,8.37
2022-09-18T03:49:14.675Z,7.53
2022-09-18T03:51:44.114Z,7.67
2022-09-18T03:54:14.483Z,9.27
2022-09-18T03:57:00.525Z,10.03
2022-09-18T03:59:46.790Z,10.80
2022-09-18T04:02:37.026Z,8.90
2022-09-18T04:05:24.485Z,7.90
2022-09-18T04:08:11.186Z,10.47
2022-09-18T04:10:57.262Z,10.87
2022-09-18T04:13:25.577Z,7.70
2022-09-18T04:15:53.305Z,8.17
2022-09-18T04:18:20.862Z,8.07
2022-09-18T04:20:51.534Z,17.50
2022-09-18T04:23:19.130Z,9.87
2022-09-18T04:25:46.925Z,7.83
2022-09-18T04:28:14.496Z,7.50
2022-09-18T04:30:47.151Z,8.23
2022-09-18T04:33:16.054Z,14.17
2022-09-18T04:35:43.944Z,11.73
2022-09-18T04:38:13.414Z,8.97
2022-09-18T04:40:41.438Z,9.20
2022-09-18T04:43:10.356Z,8.73
2022-09-18T04:45:38.510Z,7.50
2022-09-18T04:48:06.115Z,11.70
2022-09-18T04:50:33.659Z,7.30
2022-09-18T04:53:09.687Z,8.10
2022-09-18T04:55:39.336Z,13.67
2022-09-18T04:58:10.318Z,11.33
2022-09-18T05:00:39.058Z,8.47
2022-09-18T05:03:07.038Z,6.63
2022-09-18T05:05:37.241Z,10.00
2022-09-18T05:08:06.418Z,6.63
2022-09-18T05:10:35.109Z,10.43
2022-09-18T05:13:06.129Z,11.03
2022-09-18T05:15:38.438Z,9.07
2022-09-18T05:18:11.455Z,6.27
2022-09-18T05:20:40.174Z,6.87
2022-09-18T05:23:09.326Z,6.93
2022-09-18T05:25:37.726Z,10.57
2022-09-18T05:28:06.761Z,9.20
2022-09-18T05:30:44.330Z,7.43
2022-09-18T05:33:12.796Z,6.47
2022-09-18T05:35:42.159Z,8.63
2022-09-18T05:38:11.453Z,7.83
2022-09-18T05:40:43.420Z,9.30
2022-09-18T05:43:12.420Z,7.73
2022-09-18T05:45:40.255Z,8.77
2022-09-18T05:48:16.548Z,7.80
2022-09-18T05:50:45.275Z,10.73
2022-09-18T05:53:17.781Z,7.27
2022-09-18T05:56:08.707Z,10.27
2022-09-18T05:58:37.718Z,11.63
2022-09-18T06:01:05.542Z,7.60
2022-09-18T06:03:51.652Z,7.93
2022-09-18T06:06:20.652Z,9.77
2022-09-18T06:08:48.334Z,11.37
2022-09-18T06:11:16.513Z,16.97
2022-09-18T06:13:48.888Z,17.53
2022-09-18T06:16:16.905Z,16.23
2022-09-18T06:18:52.364Z,13.90
2022-09-18T06:21:21.259Z,14.23
2022-09-18T06:23:48.665Z,13.70
2022-09-18T06:26:25.128Z,13.50
2022-09-18T06:28:53.983Z,13.50
2022-09-18T06:31:21.592Z,14.37
2022-09-18T06:33:58.545Z,14.07
2022-09-18T06:36:26.068Z,13.47
2022-09-18T06:39:26.050Z,15.13
2022-09-18T06:42:00.085Z,14.03
2022-09-18T06:44:48.543Z,12.87
2022-09-18T06:47:20.454Z,14.83
2022-09-18T06:49:48.561Z,13.13
2022-09-18T06:52:17.750Z,12.80
2022-09-18T06:54:46.936Z,13.60
2022-09-18T06:57:28.561Z,13.80
2022-09-18T06:59:57.413Z,12.83
2022-09-18T07:02:25.489Z,11.83
2022-09-18T07:05:00.577Z,12.20
2022-09-18T07:07:28.149Z,12.37
2022-09-18T07:09:56.614Z,12.37
2022-09-18T07:12:48.197Z,13.03
2022-09-18T07:15:18.414Z,17.73
2022-09-18T07:17:45.997Z,12.27
2022-09-18T07:20:16.569Z,13.13
2022-09-18T07:22:47.433Z,12.97
2022-09-18T07:25:15.774Z,12.87
2022-09-18T07:27:44.646Z,12.37
2022-09-18T07:30:14.566Z,12.17
2022-09-18T07:32:44.289Z,14.97
2022-09-18T07:35:16.080Z,12.47
2022-09-18T07:37:43.655Z,13.53
2022-09-18T07:40:17.674Z,12.77
2022-09-18T07:43:06.137Z,12.60
2022-09-18T07:45:33.982Z,12.70
2022-09-18T07:48:03.824Z,13.23
2022-09-18T07:50:33.213Z,14.63
2022-09-18T07:53:04.778Z,13.63
2022-09-18T07:55:36.925Z,12.87
2022-09-18T07:58:06.690Z,13.63
2022-09-18T08:01:01.561Z,13.17
2022-09-18T08:03:32.194Z,13.00
2022-09-18T08:06:11.775Z,13.70
2022-09-18T08:08:55.112Z,13.67
2022-09-18T08:11:54.986Z,14.23
2022-09-18T08:14:29.209Z,14.33
2022-09-18T08:17:19.568Z,14.67
2022-09-18T08:20:11.777Z,14.83
2022-09-18T08:22:44.629Z,14.87
2022-09-18T08:25:13.229Z,13.20
2022-09-18T08:27:45.358Z,13.13
2022-09-18T08:30:15.571Z,12.77
2022-09-18T08:32:46.670Z,11.90
2022-09-18T08:35:15.509Z,11.77
2022-09-18T08:37:48.368Z,10.83
2022-09-18T08:40:44.666Z,10.20
2022-09-18T08:43:25.925Z,9.37
2022-09-18T08:45:58.507Z,9.70
2022-09-18T08:48:28.587Z,7.90
2022-09-18T08:51:00.330Z,7.50
2022-09-18T08:53:33.106Z,7.43
2022-09-18T08:56:26.984Z,8.10
2022-09-18T08:59:16.173Z,7.93
2022-09-18T09:01:50.671Z,7.63
2022-09-18T09:04:22.300Z,7.80
2022-09-18T09:07:00.688Z,8.23
2022-09-18T09:09:50.438Z,8.50
2022-09-18T09:12:27.509Z,7.57
2022-09-18T09:15:21.660Z,8.67
2022-09-18T09:17:54.962Z,8.03
2022-09-18T09:20:26.046Z,8.40
2022-09-18T09:23:03.242Z,8.80
2022-09-18T09:25:39.689Z,8.43
2022-09-18T09:28:16.913Z,8.70
2022-09-18T09:31:14.610Z,9.13
2022-09-18T09:34:25.613Z,9.43
2022-09-18T09:37:00.401Z,8.90
2022-09-18T09:39:33.510Z,8.93
2022-09-18T09:42:05.521Z,9.33
2022-09-18T09:44:38.251Z,8.97
2022-09-18T09:47:15.792Z,9.50
2022-09-18T09:49:52.452Z,10.40
2022-09-18T09:52:23.522Z,10.27
2022-09-18T09:54:58.052Z,10.03
2022-09-18T09:57:28.181Z,10.43
2022-09-18T10:00:06.957Z,10.43
2022-09-18T10:02:59.091Z,12.07
2022-09-18T10:05:33.689Z,11.90
2022-09-18T10:08:05.745Z,25.23
2022-09-18T10:10:41.121Z,13.43
2022-09-18T10:13:14.657Z,14.77
2022-09-18T10:15:43.849Z,11.87
2022-09-18T10:18:17.373Z,11.67
2022-09-18T10:20:47.037Z,10.70
2022-09-18T10:23:18.105Z,11.83
2022-09-18T10:25:50.963Z,11.77
2022-09-18T10:28:18.513Z,10.97
2022-09-18T10:30:59.901Z,10.53
2022-09-18T10:33:32.765Z,11.13
2022-09-18T10:36:04.521Z,11.17
2022-09-18T10:38:34.414Z,10.40
2022-09-18T10:41:29.969Z,10.13
2022-09-18T10:44:07.305Z,10.40
2022-09-18T10:46:37.479Z,10.40
2022-09-18T10:49:18.551Z,11.30
2022-09-18T10:51:46.344Z,10.37
2022-09-18T10:54:19.116Z,11.17
2022-09-18T10:57:26.438Z,11.17
2022-09-18T10:59:55.022Z,11.13
2022-09-18T11:02:26.856Z,10.93
2022-09-18T11:04:55.981Z,11.10
2022-09-18T11:07:26.447Z,10.90
2022-09-18T11:09:54.059Z,10.33
2022-09-18T11:12:23.497Z,10.07
2022-09-18T11:14:59.641Z,10.03
2022-09-18T11:17:29.949Z,10.10
2022-09-18T11:19:59.325Z,10.37
2022-09-18T11:22:47.368Z,10.20
2022-09-18T11:25:23.669Z,10.00
2022-09-18T11:27:56.245Z,9.90
2022-09-18T11:30:28.614Z,9.07
2022-09-18T11:33:00.337Z,9.60
2022-09-18T11:35:30.834Z,9.03
2022-09-18T11:38:00.580Z,8.97
2022-09-18T11:40:31.053Z,9.20
2022-09-18T11:42:59.607Z,8.73
2022-09-18T11:45:45.485Z,7.90
2022-09-18T11:48:23.165Z,7.77
2022-09-18T11:50:52.983Z,7.43
2022-09-18T11:53:27.334Z,7.00
2022-09-18T11:56:00.334Z,7.93
2022-09-18T11:58:32.217Z,7.53
2022-09-18T12:01:10.784Z,8.03
2022-09-18T12:03:42.692Z,8.30
2022-09-18T12:06:15.242Z,9.00
2022-09-18T12:08:44.823Z,8.57
2022-09-18T12:11:20.649Z,8.20
2022-09-18T12:13:57.001Z,9.03
2022-09-18T12:16:34.800Z,7.63
2022-09-18T12:19:05.115Z,8.07
2022-09-18T12:21:43.870Z,8.17
2022-09-18T12:24:14.297Z,7.80
2022-09-18T12:26:53.189Z,7.60
2022-09-18T12:29:35.414Z,8.07
2022-09-18T12:32:14.144Z,9.00
2022-09-18T12:34:47.218Z,10.93
2022-09-18T12:37:25.166Z,9.80
2022-09-18T12:40:28.819Z,9.80
2022-09-18T12:43:07.045Z,10.50
2022-09-18T12:46:13.566Z,11.23
2022-09-18T12:48:57.219Z,10.63
2022-09-18T12:51:35.723Z,10.70
2022-09-18T12:54:23.410Z,10.80
2022-09-18T12:57:00.780Z,11.00
2022-09-18T12:59:40.770Z,11.10
2022-09-18T13:02:16.079Z,11.43
2022-09-18T13:04:47.870Z,11.57
2022-09-18T13:07:18.038Z,11.27
2022-09-18T13:09:51.585Z,11.07
2022-09-18T13:12:23.096Z,11.80
2022-09-18T13:14:53.864Z,12.40
2022-09-18T13:17:25.744Z,12.20
2022-09-18T13:19:58.749Z,12.53
2022-09-18T13:22:31.465Z,13.00
2022-09-18T13:24:59.416Z,12.47
2022-09-18T13:27:27.497Z,12.17
2022-09-18T13:29:58.981Z,12.40
2022-09-18T13:32:39.313Z,12.13
2022-09-18T13:35:20.815Z,12.80
2022-09-18T13:37:49.128Z,12.47
2022-09-18T13:40:35.354Z,12.50
2022-09-18T13:43:23.452Z,12.70
2022-09-18T13:45:51.225Z,13.40
2022-09-18T13:48:22.800Z,12.20
2022-09-18T13:50:54.320Z,12.40
2022-09-18T13:53:40.544Z,12.13
2022-09-18T13:56:09.397Z,12.70
2022-09-18T13:58:47.884Z,12.70
2022-09-18T14:01:47.844Z,13.00
2022-09-18T14:04:51.617Z,12.63
2022-09-18T14:07:48.616Z,12.67
2022-09-18T14:10:25.668Z,13.10
2022-09-18T14:13:07.352Z,12.60
2022-09-18T14:15:34.909Z,13.17
2022-09-18T14:18:07.945Z,13.90
2022-09-18T14:20:35.592Z,13.07
2022-09-18T14:23:45.960Z,12.93
2022-09-18T14:26:47.057Z,13.07
2022-09-18T14:29:19.281Z,13.43
2022-09-18T14:31:48.758Z,13.10
2022-09-18T14:34:19.552Z,12.30
2022-09-18T14:36:49.790Z,13.73
2022-09-18T14:39:24.432Z,13.30
2022-09-18T14:41:53.442Z,13.50
2022-09-18T14:44:23.777Z,13.77
2022-09-18T14:46:55.590Z,13.63
2022-09-18T14:49:27.923Z,12.97
2022-09-18T14:52:03.920Z,15.57
2022-09-18T14:54:32.201Z,13.83
2022-09-18T14:57:01.011Z,13.53
2022-09-18T14:59:30.000Z,13.03
2022-09-18T15:02:13.018Z,13.50
2022-09-18T15:04:42.413Z,12.97
2022-09-18T15:07:17.744Z,13.33
2022-09-18T15:09:46.957Z,13.10
2022-09-18T15:12:17.304Z,12.97
2022-09-18T15:14:47.797Z,12.63
2022-09-18T15:17:20.416Z,12.73
2022-09-18T15:19:59.226Z,12.77
2022-09-18T15:22:27.673Z,13.10
2022-09-18T15:24:58.400Z,12.23
2022-09-18T15:27:26.112Z,13.17
2022-09-18T15:29:59.372Z,12.50
2022-09-18T15:32:28.968Z,11.93
2022-09-18T15:34:56.836Z,12.23
2022-09-18T15:37:25.873Z,12.53
2022-09-18T15:40:02.838Z,13.50
2022-09-18T15:42:31.721Z,11.80
2022-09-18T15:45:20.024Z,12.43
2022-09-18T15:47:47.674Z,12.43
2022-09-18T15:50:40.773Z,12.10
2022-09-18T15:53:23.845Z,12.90
2022-09-18T15:56:04.186Z,12.00
2022-09-18T15:58:57.818Z,11.47
2022-09-18T16:01:30.744Z,13.20
2022-09-18T16:04:08.603Z,11.90
2022-09-18T16:06:43.089Z,12.13
2022-09-18T16:09:23.048Z,11.90
2022-09-18T16:11:51.625Z,11.63
2022-09-18T16:14:41.858Z,11.07
2022-09-18T16:17:39.471Z,10.73
2022-09-18T16:20:25.945Z,11.70
2022-09-18T16:22:57.605Z,11.70
2022-09-18T16:25:28.089Z,10.90
2022-09-18T16:27:57.817Z,11.30
2022-09-18T16:30:25.564Z,11.23
2022-09-18T16:33:00.705Z,11.20
2022-09-18T16:35:28.176Z,11.73
2022-09-18T16:37:55.858Z,10.57
2022-09-18T16:40:27.643Z,11.30
2022-09-18T16:42:58.432Z,11.30
2022-09-18T16:45:28.057Z,11.23
2022-09-18T16:48:00.658Z,11.03
2022-09-18T16:50:28.510Z,11.17
2022-09-18T16:52:59.646Z,11.13
2022-09-18T16:55:28.893Z,12.00
2022-09-18T16:57:56.410Z,11.63
2022-09-18T17:00:24.490Z,11.10
2022-09-18T17:02:52.470Z,9.87
2022-09-18T17:05:21.270Z,10.80
2022-09-18T17:07:48.790Z,10.30
2022-09-18T17:10:16.341Z,10.13
2022-09-18T17:12:45.162Z,10.90
2022-09-18T17:15:12.752Z,10.90
2022-09-18T17:17:40.222Z,10.70
2022-09-18T17:20:09.648Z,12.60
2022-09-18T17:22:38.418Z,10.77
2022-09-18T17:25:06.798Z,10.80
2022-09-18T17:27:39.713Z,10.70
2022-09-18T17:30:12.641Z,10.53
2022-09-18T17:32:40.102Z,11.90
2022-09-18T17:35:07.968Z,10.17
2022-09-18T17:37:35.524Z,10.70
2022-09-18T17:40:04.933Z,9.83
2022-09-18T17:42:33.423Z,9.90
2022-09-18T17:45:00.881Z,10.67
2022-09-18T17:47:28.319Z,9.80
2022-09-18T17:49:55.781Z,10.43
2022-09-18T17:52:25.620Z,10.20
2022-09-18T17:54:53.064Z,12.53
2022-09-18T17:57:31.006Z,10.50
2022-09-18T17:59:58.680Z,11.80
2022-09-18T18:02:26.235Z,10.80
2022-09-18T18:04:53.828Z,11.33
2022-09-18T18:07:21.253Z,11.30
2022-09-18T18:09:48.720Z,11.43
2022-09-18T18:12:16.336Z,11.70
2022-09-18T18:14:45.159Z,12.03
2022-09-18T18:17:12.884Z,12.67
2022-09-18T18:19:40.428Z,12.40
2022-09-18T18:22:07.912Z,11.60
2022-09-18T18:24:35.392Z,10.87
2022-09-18T18:27:04.356Z,12.93
2022-09-18T18:29:31.822Z,10.63
2022-09-18T18:32:01.328Z,10.47
2022-09-18T18:34:30.036Z,10.70
2022-09-18T18:36:57.708Z,10.53
2022-09-18T18:39:25.474Z,11.13
2022-09-18T18:41:53.323Z,10.57
2022-09-18T18:44:21.905Z,10.50
2022-09-18T18:46:50.248Z,9.67
2022-09-18T18:49:19.823Z,11.20
2022-09-18T18:51:50.692Z,10.63
2022-09-18T18:54:21.554Z,10.67
2022-09-18T18:56:51.780Z,11.27
2022-09-18T18:59:22.427Z,10.80
2022-09-18T19:01:50.902Z,11.10
2022-09-18T19:04:20.794Z,11.00
2022-09-18T19:06:49.881Z,11.53
2022-09-18T19:09:20.496Z,11.30
2022-09-18T19:11:49.898Z,12.17
2022-09-18T19:14:19.498Z,11.13
2022-09-18T19:16:48.722Z,12.07
2022-09-18T19:19:17.968Z,12.00
2022-09-18T19:21:47.930Z,12.17
2022-09-18T19:24:16.521Z,11.50
2022-09-18T19:26:44.348Z,11.40
2022-09-18T19:29:14.897Z,10.83
2022-09-18T19:31:43.771Z,10.80
2022-09-18T19:34:12.881Z,10.97
2022-09-18T19:36:40.691Z,10.97
2022-09-18T19:39:12.980Z,12.10
2022-09-18T19:41:42.569Z,11.13
2022-09-18T19:44:13.977Z,11.03
2022-09-18T19:46:41.747Z,11.40
2022-09-18T19:49:15.302Z,10.93
2022-09-18T19:51:45.045Z,10.37
2022-09-18T19:54:13.853Z,11.00
2022-09-18T19:56:46.438Z,10.97
2022-09-18T19:59:13.964Z,10.73
2022-09-18T20:01:43.262Z,10.83
2022-09-18T20:04:10.767Z,11.60
2022-09-18T20:06:40.269Z,11.37
2022-09-18T20:09:07.795Z,12.20
2022-09-18T20:11:36.634Z,11.27
2022-09-18T20:14:04.237Z,11.47
2022-09-18T20:16:32.042Z,12.40
2022-09-18T20:18:59.572Z,12.40
2022-09-18T20:21:27.053Z,11.93
2022-09-18T20:23:56.983Z,11.40
2022-09-18T20:26:25.004Z,12.00
2022-09-18T20:28:53.855Z,11.87
2022-09-18T20:31:23.628Z,11.17
2022-09-18T20:33:54.908Z,11.50
2022-09-18T20:36:22.374Z,11.60
2022-09-18T20:38:54.024Z,11.13
2022-09-18T20:41:21.939Z,11.60
2022-09-18T20:43:54.840Z,11.53
2022-09-18T20:46:23.861Z,10.90
2022-09-18T20:48:54.994Z,11.90
2022-09-18T20:51:25.030Z,12.00
2022-09-18T20:53:56.013Z,14.27
2022-09-18T20:56:25.063Z,12.87
2022-09-18T20:58:53.129Z,12.87
2022-09-18T21:01:24.420Z,11.80
2022-09-18T21:03:56.595Z,12.10
2022-09-18T21:06:25.701Z,11.53
2022-09-18T21:08:54.670Z,11.93
2022-09-18T21:11:24.244Z,10.93
2022-09-18T21:13:53.685Z,11.47
2022-09-18T21:16:23.276Z,11.50
2022-09-18T21:18:53.272Z,11.40
2022-09-18T21:21:21.233Z,11.00
2022-09-18T21:23:56.179Z,11.00
2022-09-18T21:26:24.992Z,10.70
2022-09-18T21:28:52.777Z,11.13
2022-09-18T21:31:22.384Z,11.60
2022-09-18T21:33:50.956Z,10.40
2022-09-18T21:36:18.369Z,10.70
2022-09-18T21:38:48.551Z,10.57
2022-09-18T21:41:15.989Z,10.93
2022-09-18T21:43:45.407Z,10.73
2022-09-18T21:46:14.880Z,10.60
2022-09-18T21:48:44.040Z,11.30
2022-09-18T21:51:13.673Z,10.97
2022-09-18T21:53:42.198Z,11.00
2022-09-18T21:56:11.924Z,10.50
2022-09-18T21:58:40.846Z,10.63
2022-09-18T22:01:09.747Z,12.57
2022-09-18T22:03:37.309Z,10.10
2022-09-18T22:06:06.581Z,11.00
2022-09-18T22:08:34.060Z,10.33
2022-09-18T22:11:02.336Z,10.17
2022-09-18T22:13:32.429Z,10.03
2022-09-18T22:16:00.064Z,11.83
2022-09-18T22:18:27.956Z,11.93
2022-09-18T22:20:57.139Z,10.70
2022-09-18T22:23:27.233Z,10.83
2022-09-18T22:25:55.368Z,12.30
2022-09-18T22:28:26.429Z,11.07
2022-09-18T22:30:53.889Z,11.17
2022-09-18T22:33:21.404Z,11.80
2022-09-18T22:35:49.021Z,11.43
2022-09-18T22:38:18.836Z,11.20
2022-09-18T22:40:47.600Z,11.17
2022-09-18T22:43:15.433Z,11.97
2022-09-18T22:45:42.904Z,11.33
2022-09-18T22:48:10.365Z,11.43
2022-09-18T22:50:37.760Z,10.60
2022-09-18T22:53:05.193Z,11.30
2022-09-18T22:55:33.883Z,11.40
2022-09-18T22:58:04.428Z,11.00
2022-09-18T23:00:31.853Z,12.07
2022-09-18T23:02:59.237Z,11.97
2022-09-18T23:05:27.065Z,10.80
2022-09-18T23:07:54.469Z,10.37
2022-09-18T23:10:24.277Z,10.80
2022-09-18T23:12:51.672Z,10.60
2022-09-18T23:15:20.512Z,11.10
2022-09-18T23:17:47.944Z,12.10
2022-09-18T23:20:16.281Z,11.80
2022-09-18T23:22:43.816Z,11.77
2022-09-18T23:25:11.241Z,12.33
2022-09-18T23:27:38.844Z,11.70
2022-09-18T23:30:07.361Z,12.00
2022-09-18T23:32:36.120Z,12.10
2022-09-18T23:35:04.432Z,11.90
2022-09-18T23:37:31.864Z,11.80
2022-09-18T23:39:59.304Z,12.00
2022-09-18T23:42:26.753Z,11.90
2022-09-18T23:44:54.473Z,11.37
2022-09-18T23:47:21.945Z,11.37
2022-09-18T23:49:50.738Z,10.97
2022-09-18T23:52:18.257Z,11.63
2022-09-18T23:54:45.750Z,11.20
2022-09-18T23:57:13.640Z,11.23
2022-09-18T23:59:41.085Z,11.00
